sensor_id;sensor_type;location;lat;lon;timestamp;P1;durP1;ratioP1;P2;durP2;ratioP2
33279;SDS011;20403;43.114;12.434;2023-04-30T00:02:06;14.32;;;4.35;;
33279;SDS011;20403;43.114;12.434;2023-04-30T00:04:32;9.07;;;4.03;;
33279;SDS011;20403;43.114;12.434;2023-04-30T00:06:58;7.80;;;4.38;;
33279;SDS011;20403;43.114;12.434;2023-04-30T00:09:23;6.40;;;4.43;;
33279;SDS011;20403;43.114;12.434;2023-04-30T00:11:49;11.63;;;4.65;;
33279;SDS011;20403;43.114;12.434;2023-04-30T00:14:14;8.55;;;3.97;;
33279;SDS011;20403;43.114;12.434;2023-04-30T00:16:40;10.50;;;4.63;;
33279;SDS011;20403;43.114;12.434;2023-04-30T00:19:05;9.27;;;4.40;;
33279;SDS011;20403;43.114;12.434;2023-04-30T00:21:32;7.95;;;3.97;;
33279;SDS011;20403;43.114;12.434;2023-04-30T00:23:58;7.30;;;3.58;;
33279;SDS011;20403;43.114;12.434;2023-04-30T00:26:26;8.60;;;3.63;;
33279;SDS011;20403;43.114;12.434;2023-04-30T00:28:52;10.90;;;3.95;;
33279;SDS011;20403;43.114;12.434;2023-04-30T00:31:17;8.40;;;3.53;;
33279;SDS011;20403;43.114;12.434;2023-04-30T00:33:43;8.63;;;4.38;;
33279;SDS011;20403;43.114;12.434;2023-04-30T00:36:08;7.10;;;4.07;;
33279;SDS011;20403;43.114;12.434;2023-04-30T00:38:34;9.30;;;4.05;;
33279;SDS011;20403;43.114;12.434;2023-04-30T00:40:59;7.68;;;4.35;;
33279;SDS011;20403;43.114;12.434;2023-04-30T00:43:25;6.80;;;3.85;;
33279;SDS011;20403;43.114;12.434;2023-04-30T00:45:50;9.13;;;4.43;;
33279;SDS011;20403;43.114;12.434;2023-04-30T00:48:16;8.48;;;4.28;;
33279;SDS011;20403;43.114;12.434;2023-04-30T00:50:42;7.07;;;4.43;;
33279;SDS011;20403;43.114;12.434;2023-04-30T00:53:11;7.60;;;4.10;;
33279;SDS011;20403;43.114;12.434;2023-04-30T00:55:40;10.35;;;4.57;;
33279;SDS011;20403;43.114;12.434;2023-04-30T00:58:07;9.57;;;4.40;;
33279;SDS011;20403;43.114;12.434;2023-04-30T01:00:33;5.15;;;4.03;;
33279;SDS011;20403;43.114;12.434;2023-04-30T01:02:59;8.55;;;4.72;;
33279;SDS011;20403;43.114;12.434;2023-04-30T01:05:24;6.20;;;4.45;;
33279;SDS011;20403;43.114;12.434;2023-04-30T01:07:50;6.25;;;4.10;;
33279;SDS011;20403;43.114;12.434;2023-04-30T01:10:17;7.35;;;4.15;;
33279;SDS011;20403;43.114;12.434;2023-04-30T01:13:27;6.57;;;4.30;;
33279;SDS011;20403;43.114;12.434;2023-04-30T01:18:42;9.13;;;4.22;;
33279;SDS011;20403;43.114;12.434;2023-04-30T01:21:13;7.00;;;4.07;;
33279;SDS011;20403;43.114;12.434;2023-04-30T01:24:09;16.17;;;4.22;;
33279;SDS011;20403;43.114;12.434;2023-04-30T01:27:09;8.45;;;4.50;;
33279;SDS011;20403;43.114;12.434;2023-04-30T01:29:40;10.18;;;4.82;;
33279;SDS011;20403;43.114;12.434;2023-04-30T01:32:08;9.95;;;5.13;;
33279;SDS011;20403;43.114;12.434;2023-04-30T01:34:35;8.65;;;4.38;;
33279;SDS011;20403;43.114;12.434;2023-04-30T01:37:15;12.60;;;5.25;;
33279;SDS011;20403;43.114;12.434;2023-04-30T01:42:29;7.03;;;4.28;;
33279;SDS011;20403;43.114;12.434;2023-04-30T01:48:17;10.50;;;4.10;;
33279;SDS011;20403;43.114;12.434;2023-04-30T01:50:57;10.00;;;4.10;;
33279;SDS011;20403;43.114;12.434;2023-04-30T01:53:40;9.02;;;4.45;;
33279;SDS011;20403;43.114;12.434;2023-04-30T01:56:17;6.47;;;4.32;;
33279;SDS011;20403;43.114;12.434;2023-04-30T01:58:48;7.63;;;4.05;;
33279;SDS011;20403;43.114;12.434;2023-04-30T02:01:32;7.90;;;4.07;;
33279;SDS011;20403;43.114;12.434;2023-04-30T02:03:58;6.07;;;3.88;;
33279;SDS011;20403;43.114;12.434;2023-04-30T02:06:24;9.32;;;4.20;;
33279;SDS011;20403;43.114;12.434;2023-04-30T02:08:52;5.97;;;3.83;;
33279;SDS011;20403;43.114;12.434;2023-04-30T02:11:19;5.65;;;3.80;;
33279;SDS011;20403;43.114;12.434;2023-04-30T02:13:45;6.00;;;3.10;;
33279;SDS011;20403;43.114;12.434;2023-04-30T02:16:11;4.90;;;3.58;;
33279;SDS011;20403;43.114;12.434;2023-04-30T02:18:36;6.55;;;3.85;;
33279;SDS011;20403;43.114;12.434;2023-04-30T02:21:01;5.88;;;3.90;;
33279;SDS011;20403;43.114;12.434;2023-04-30T02:23:27;9.20;;;4.55;;
33279;SDS011;20403;43.114;12.434;2023-04-30T02:25:52;6.75;;;3.58;;
33279;SDS011;20403;43.114;12.434;2023-04-30T02:28:18;6.35;;;4.03;;
33279;SDS011;20403;43.114;12.434;2023-04-30T02:30:43;7.55;;;4.50;;
33279;SDS011;20403;43.114;12.434;2023-04-30T02:33:09;9.35;;;4.97;;
33279;SDS011;20403;43.114;12.434;2023-04-30T02:35:36;11.35;;;4.72;;
33279;SDS011;20403;43.114;12.434;2023-04-30T02:38:02;8.43;;;3.75;;
33279;SDS011;20403;43.114;12.434;2023-04-30T02:40:27;8.15;;;4.05;;
33279;SDS011;20403;43.114;12.434;2023-04-30T02:42:53;6.60;;;4.65;;
33279;SDS011;20403;43.114;12.434;2023-04-30T02:45:20;6.10;;;3.88;;
33279;SDS011;20403;43.114;12.434;2023-04-30T02:47:45;4.40;;;3.40;;
33279;SDS011;20403;43.114;12.434;2023-04-30T02:50:11;8.95;;;4.13;;
33279;SDS011;20403;43.114;12.434;2023-04-30T02:52:36;10.60;;;4.18;;
33279;SDS011;20403;43.114;12.434;2023-04-30T02:55:02;5.57;;;4.10;;
33279;SDS011;20403;43.114;12.434;2023-04-30T02:57:28;6.40;;;4.03;;
33279;SDS011;20403;43.114;12.434;2023-04-30T02:59:53;7.05;;;4.60;;
33279;SDS011;20403;43.114;12.434;2023-04-30T03:02:18;7.75;;;5.07;;
33279;SDS011;20403;43.114;12.434;2023-04-30T03:04:45;6.78;;;4.57;;
33279;SDS011;20403;43.114;12.434;2023-04-30T03:07:10;6.97;;;4.18;;
33279;SDS011;20403;43.114;12.434;2023-04-30T03:09:36;5.85;;;4.32;;
33279;SDS011;20403;43.114;12.434;2023-04-30T03:12:01;6.20;;;4.32;;
33279;SDS011;20403;43.114;12.434;2023-04-30T03:14:27;12.32;;;3.85;;
33279;SDS011;20403;43.114;12.434;2023-04-30T03:16:53;7.10;;;3.97;;
33279;SDS011;20403;43.114;12.434;2023-04-30T03:19:18;6.30;;;3.95;;
33279;SDS011;20403;43.114;12.434;2023-04-30T03:21:48;6.00;;;4.25;;
33279;SDS011;20403;43.114;12.434;2023-04-30T03:24:14;7.53;;;3.78;;
33279;SDS011;20403;43.114;12.434;2023-04-30T03:26:40;7.47;;;4.30;;
33279;SDS011;20403;43.114;12.434;2023-04-30T03:29:05;7.38;;;4.10;;
33279;SDS011;20403;43.114;12.434;2023-04-30T03:31:30;4.55;;;3.47;;
33279;SDS011;20403;43.114;12.434;2023-04-30T03:33:56;7.88;;;4.13;;
33279;SDS011;20403;43.114;12.434;2023-04-30T03:36:21;6.25;;;4.15;;
33279;SDS011;20403;43.114;12.434;2023-04-30T03:38:47;7.50;;;5.00;;
33279;SDS011;20403;43.114;12.434;2023-04-30T03:41:12;7.22;;;4.63;;
33279;SDS011;20403;43.114;12.434;2023-04-30T03:43:37;13.10;;;5.38;;
33279;SDS011;20403;43.114;12.434;2023-04-30T03:46:03;9.52;;;4.90;;
33279;SDS011;20403;43.114;12.434;2023-04-30T03:48:28;8.80;;;5.28;;
33279;SDS011;20403;43.114;12.434;2023-04-30T03:50:54;10.68;;;5.47;;
33279;SDS011;20403;43.114;12.434;2023-04-30T03:53:19;12.18;;;4.90;;
33279;SDS011;20403;43.114;12.434;2023-04-30T03:55:45;7.57;;;4.60;;
33279;SDS011;20403;43.114;12.434;2023-04-30T03:58:10;9.73;;;4.57;;
33279;SDS011;20403;43.114;12.434;2023-04-30T04:00:36;6.40;;;4.35;;
33279;SDS011;20403;43.114;12.434;2023-04-30T04:03:02;9.77;;;4.80;;
33279;SDS011;20403;43.114;12.434;2023-04-30T04:05:28;6.72;;;4.80;;
33279;SDS011;20403;43.114;12.434;2023-04-30T04:07:53;12.63;;;4.80;;
33279;SDS011;20403;43.114;12.434;2023-04-30T04:10:19;9.80;;;5.07;;
33279;SDS011;20403;43.114;12.434;2023-04-30T04:12:44;7.53;;;4.95;;
33279;SDS011;20403;43.114;12.434;2023-04-30T04:15:10;10.10;;;4.93;;
33279;SDS011;20403;43.114;12.434;2023-04-30T04:17:36;6.13;;;4.22;;
33279;SDS011;20403;43.114;12.434;2023-04-30T04:20:01;9.00;;;4.93;;
33279;SDS011;20403;43.114;12.434;2023-04-30T04:22:28;7.65;;;4.38;;
33279;SDS011;20403;43.114;12.434;2023-04-30T04:24:53;6.05;;;4.55;;
33279;SDS011;20403;43.114;12.434;2023-04-30T04:27:19;6.50;;;4.95;;
33279;SDS011;20403;43.114;12.434;2023-04-30T04:29:44;7.47;;;4.80;;
33279;SDS011;20403;43.114;12.434;2023-04-30T04:32:10;10.40;;;4.57;;
33279;SDS011;20403;43.114;12.434;2023-04-30T04:34:35;5.93;;;4.35;;
33279;SDS011;20403;43.114;12.434;2023-04-30T04:37:02;13.57;;;5.38;;
33279;SDS011;20403;43.114;12.434;2023-04-30T04:39:27;14.60;;;5.07;;
33279;SDS011;20403;43.114;12.434;2023-04-30T04:41:53;8.70;;;5.28;;
33279;SDS011;20403;43.114;12.434;2023-04-30T04:44:19;7.53;;;4.57;;
33279;SDS011;20403;43.114;12.434;2023-04-30T04:46:44;7.32;;;4.47;;
33279;SDS011;20403;43.114;12.434;2023-04-30T04:49:09;10.50;;;5.10;;
33279;SDS011;20403;43.114;12.434;2023-04-30T04:51:36;6.85;;;4.72;;
33279;SDS011;20403;43.114;12.434;2023-04-30T04:54:03;13.70;;;5.18;;
33279;SDS011;20403;43.114;12.434;2023-04-30T04:56:29;8.90;;;5.07;;
33279;SDS011;20403;43.114;12.434;2023-04-30T04:58:54;9.88;;;5.43;;
33279;SDS011;20403;43.114;12.434;2023-04-30T05:01:19;9.18;;;5.13;;
33279;SDS011;20403;43.114;12.434;2023-04-30T05:03:45;7.43;;;5.50;;
33279;SDS011;20403;43.114;12.434;2023-04-30T05:06:11;8.93;;;5.35;;
33279;SDS011;20403;43.114;12.434;2023-04-30T05:08:36;8.90;;;5.20;;
33279;SDS011;20403;43.114;12.434;2023-04-30T05:11:02;8.65;;;4.68;;
33279;SDS011;20403;43.114;12.434;2023-04-30T05:13:28;6.78;;;4.68;;
33279;SDS011;20403;43.114;12.434;2023-04-30T05:15:53;7.97;;;5.43;;
33279;SDS011;20403;43.114;12.434;2023-04-30T05:18:19;8.43;;;4.45;;
33279;SDS011;20403;43.114;12.434;2023-04-30T05:20:45;8.55;;;4.18;;
33279;SDS011;20403;43.114;12.434;2023-04-30T05:23:10;9.02;;;4.53;;
33279;SDS011;20403;43.114;12.434;2023-04-30T05:25:36;6.47;;;4.47;;
33279;SDS011;20403;43.114;12.434;2023-04-30T05:28:05;6.25;;;4.10;;
33279;SDS011;20403;43.114;12.434;2023-04-30T05:30:31;6.88;;;4.07;;
33279;SDS011;20403;43.114;12.434;2023-04-30T05:32:57;7.65;;;3.85;;
33279;SDS011;20403;43.114;12.434;2023-04-30T05:35:23;4.40;;;3.53;;
33279;SDS011;20403;43.114;12.434;2023-04-30T05:37:48;6.82;;;4.72;;
33279;SDS011;20403;43.114;12.434;2023-04-30T05:40:14;6.50;;;4.05;;
33279;SDS011;20403;43.114;12.434;2023-04-30T05:42:40;6.95;;;4.00;;
33279;SDS011;20403;43.114;12.434;2023-04-30T05:45:08;4.32;;;3.88;;
33279;SDS011;20403;43.114;12.434;2023-04-30T05:47:34;8.98;;;4.35;;
33279;SDS011;20403;43.114;12.434;2023-04-30T05:50:00;10.25;;;4.85;;
33279;SDS011;20403;43.114;12.434;2023-04-30T05:52:25;10.65;;;5.53;;
33279;SDS011;20403;43.114;12.434;2023-04-30T05:54:50;9.38;;;5.60;;
33279;SDS011;20403;43.114;12.434;2023-04-30T05:57:16;7.45;;;5.00;;
33279;SDS011;20403;43.114;12.434;2023-04-30T05:59:41;8.90;;;5.95;;
33279;SDS011;20403;43.114;12.434;2023-04-30T06:02:07;8.15;;;5.15;;
33279;SDS011;20403;43.114;12.434;2023-04-30T06:04:33;7.90;;;5.63;;
33279;SDS011;20403;43.114;12.434;2023-04-30T06:06:58;9.07;;;6.38;;
33279;SDS011;20403;43.114;12.434;2023-04-30T06:09:24;7.53;;;5.45;;
33279;SDS011;20403;43.114;12.434;2023-04-30T06:11:49;7.50;;;4.30;;
33279;SDS011;20403;43.114;12.434;2023-04-30T06:14:16;6.90;;;4.55;;
33279;SDS011;20403;43.114;12.434;2023-04-30T06:16:45;10.20;;;4.68;;
33279;SDS011;20403;43.114;12.434;2023-04-30T06:19:11;9.63;;;4.93;;
33279;SDS011;20403;43.114;12.434;2023-04-30T06:21:36;9.27;;;4.70;;
33279;SDS011;20403;43.114;12.434;2023-04-30T06:24:02;11.27;;;5.22;;
33279;SDS011;20403;43.114;12.434;2023-04-30T06:26:28;6.18;;;3.85;;
33279;SDS011;20403;43.114;12.434;2023-04-30T06:28:53;6.72;;;2.85;;
33279;SDS011;20403;43.114;12.434;2023-04-30T06:31:19;6.05;;;3.42;;
33279;SDS011;20403;43.114;12.434;2023-04-30T06:33:45;7.88;;;3.75;;
33279;SDS011;20403;43.114;12.434;2023-04-30T06:36:10;5.93;;;3.50;;
33279;SDS011;20403;43.114;12.434;2023-04-30T06:38:36;10.52;;;3.88;;
33279;SDS011;20403;43.114;12.434;2023-04-30T06:41:01;7.78;;;3.63;;
33279;SDS011;20403;43.114;12.434;2023-04-30T06:43:27;5.20;;;3.13;;
33279;SDS011;20403;43.114;12.434;2023-04-30T06:45:52;12.25;;;3.75;;
33279;SDS011;20403;43.114;12.434;2023-04-30T06:48:17;7.50;;;3.30;;
33279;SDS011;20403;43.114;12.434;2023-04-30T06:50:43;6.97;;;3.13;;
33279;SDS011;20403;43.114;12.434;2023-04-30T06:53:12;6.20;;;4.15;;
33279;SDS011;20403;43.114;12.434;2023-04-30T06:55:38;7.20;;;3.25;;
33279;SDS011;20403;43.114;12.434;2023-04-30T06:58:03;7.25;;;3.28;;
33279;SDS011;20403;43.114;12.434;2023-04-30T07:00:32;12.15;;;3.60;;
33279;SDS011;20403;43.114;12.434;2023-04-30T07:02:58;7.68;;;3.95;;
33279;SDS011;20403;43.114;12.434;2023-04-30T07:05:30;6.88;;;3.50;;
33279;SDS011;20403;43.114;12.434;2023-04-30T07:07:56;10.50;;;4.40;;
33279;SDS011;20403;43.114;12.434;2023-04-30T07:10:22;7.57;;;3.45;;
33279;SDS011;20403;43.114;12.434;2023-04-30T07:12:48;8.10;;;2.70;;
33279;SDS011;20403;43.114;12.434;2023-04-30T07:15:13;5.40;;;2.90;;
33279;SDS011;20403;43.114;12.434;2023-04-30T07:17:38;6.30;;;2.70;;
33279;SDS011;20403;43.114;12.434;2023-04-30T07:20:06;7.80;;;2.90;;
33279;SDS011;20403;43.114;12.434;2023-04-30T07:22:32;4.15;;;2.03;;
33279;SDS011;20403;43.114;12.434;2023-04-30T07:24:58;5.18;;;2.92;;
33279;SDS011;20403;43.114;12.434;2023-04-30T07:27:24;6.18;;;2.80;;
33279;SDS011;20403;43.114;12.434;2023-04-30T07:29:50;9.73;;;2.90;;
33279;SDS011;20403;43.114;12.434;2023-04-30T07:32:16;5.05;;;2.90;;
33279;SDS011;20403;43.114;12.434;2023-04-30T07:34:41;7.65;;;2.90;;
33279;SDS011;20403;43.114;12.434;2023-04-30T07:37:07;5.45;;;2.55;;
33279;SDS011;20403;43.114;12.434;2023-04-30T07:39:33;6.30;;;2.00;;
33279;SDS011;20403;43.114;12.434;2023-04-30T07:42:00;6.18;;;2.60;;
33279;SDS011;20403;43.114;12.434;2023-04-30T07:44:26;4.00;;;1.90;;
33279;SDS011;20403;43.114;12.434;2023-04-30T07:46:52;6.22;;;2.22;;
33279;SDS011;20403;43.114;12.434;2023-04-30T07:49:17;5.60;;;2.05;;
33279;SDS011;20403;43.114;12.434;2023-04-30T07:51:43;8.05;;;2.10;;
33279;SDS011;20403;43.114;12.434;2023-04-30T07:54:08;7.35;;;2.35;;
33279;SDS011;20403;43.114;12.434;2023-04-30T07:56:34;5.53;;;2.38;;
33279;SDS011;20403;43.114;12.434;2023-04-30T07:59:00;3.95;;;1.85;;
33279;SDS011;20403;43.114;12.434;2023-04-30T08:01:25;3.55;;;2.03;;
33279;SDS011;20403;43.114;12.434;2023-04-30T08:03:51;5.93;;;2.10;;
33279;SDS011;20403;43.114;12.434;2023-04-30T08:06:16;7.07;;;2.47;;
33279;SDS011;20403;43.114;12.434;2023-04-30T08:08:41;3.15;;;2.08;;
33279;SDS011;20403;43.114;12.434;2023-04-30T08:11:07;7.50;;;1.98;;
33279;SDS011;20403;43.114;12.434;2023-04-30T08:13:32;6.28;;;2.40;;
33279;SDS011;20403;43.114;12.434;2023-04-30T08:15:58;3.55;;;2.13;;
33279;SDS011;20403;43.114;12.434;2023-04-30T08:18:23;10.27;;;2.85;;
33279;SDS011;20403;43.114;12.434;2023-04-30T08:20:49;4.88;;;2.03;;
33279;SDS011;20403;43.114;12.434;2023-04-30T08:23:14;3.88;;;2.10;;
33279;SDS011;20403;43.114;12.434;2023-04-30T08:25:40;4.25;;;1.50;;
33279;SDS011;20403;43.114;12.434;2023-04-30T08:28:06;5.13;;;1.50;;
33279;SDS011;20403;43.114;12.434;2023-04-30T08:30:31;5.53;;;1.67;;
33279;SDS011;20403;43.114;12.434;2023-04-30T08:32:57;2.22;;;1.27;;
33279;SDS011;20403;43.114;12.434;2023-04-30T08:35:22;8.32;;;1.80;;
33279;SDS011;20403;43.114;12.434;2023-04-30T08:37:47;3.67;;;1.38;;
33279;SDS011;20403;43.114;12.434;2023-04-30T08:40:14;11.75;;;2.58;;
33279;SDS011;20403;43.114;12.434;2023-04-30T08:42:43;3.67;;;1.48;;
33279;SDS011;20403;43.114;12.434;2023-04-30T08:45:14;5.57;;;1.30;;
33279;SDS011;20403;43.114;12.434;2023-04-30T08:47:40;3.60;;;1.42;;
33279;SDS011;20403;43.114;12.434;2023-04-30T08:50:06;5.63;;;1.77;;
33279;SDS011;20403;43.114;12.434;2023-04-30T08:52:33;3.95;;;1.25;;
33279;SDS011;20403;43.114;12.434;2023-04-30T08:54:59;3.30;;;1.30;;
33279;SDS011;20403;43.114;12.434;2023-04-30T08:57:25;4.35;;;1.20;;
33279;SDS011;20403;43.114;12.434;2023-04-30T08:59:53;5.93;;;1.60;;
33279;SDS011;20403;43.114;12.434;2023-04-30T09:02:18;5.60;;;1.75;;
33279;SDS011;20403;43.114;12.434;2023-04-30T09:04:44;4.07;;;1.60;;
33279;SDS011;20403;43.114;12.434;2023-04-30T09:07:12;4.85;;;1.40;;
33279;SDS011;20403;43.114;12.434;2023-04-30T09:09:38;3.22;;;1.17;;
33279;SDS011;20403;43.114;12.434;2023-04-30T09:12:14;3.60;;;1.20;;
33279;SDS011;20403;43.114;12.434;2023-04-30T09:14:59;5.80;;;1.27;;
33279;SDS011;20403;43.114;12.434;2023-04-30T09:17:25;3.92;;;1.48;;
33279;SDS011;20403;43.114;12.434;2023-04-30T09:19:51;3.47;;;1.17;;
33279;SDS011;20403;43.114;12.434;2023-04-30T09:22:18;6.43;;;1.27;;
33279;SDS011;20403;43.114;12.434;2023-04-30T09:24:45;6.45;;;1.38;;
33279;SDS011;20403;43.114;12.434;2023-04-30T09:27:20;3.55;;;1.20;;
33279;SDS011;20403;43.114;12.434;2023-04-30T09:29:47;5.10;;;1.58;;
33279;SDS011;20403;43.114;12.434;2023-04-30T09:32:12;5.05;;;1.30;;
33279;SDS011;20403;43.114;12.434;2023-04-30T09:34:38;3.95;;;1.23;;
33279;SDS011;20403;43.114;12.434;2023-04-30T09:37:04;4.03;;;1.35;;
33279;SDS011;20403;43.114;12.434;2023-04-30T09:39:31;5.45;;;1.55;;
33279;SDS011;20403;43.114;12.434;2023-04-30T09:42:06;3.55;;;1.58;;
33279;SDS011;20403;43.114;12.434;2023-04-30T09:44:37;7.63;;;1.55;;
33279;SDS011;20403;43.114;12.434;2023-04-30T09:47:03;3.78;;;1.58;;
33279;SDS011;20403;43.114;12.434;2023-04-30T09:49:29;1.98;;;1.10;;
33279;SDS011;20403;43.114;12.434;2023-04-30T09:51:59;6.85;;;1.67;;
33279;SDS011;20403;43.114;12.434;2023-04-30T09:54:28;3.97;;;1.58;;
33279;SDS011;20403;43.114;12.434;2023-04-30T09:56:56;4.87;;;1.53;;
33279;SDS011;20403;43.114;12.434;2023-04-30T09:59:26;3.17;;;1.70;;
33279;SDS011;20403;43.114;12.434;2023-04-30T10:01:59;3.50;;;1.17;;
33279;SDS011;20403;43.114;12.434;2023-04-30T10:04:27;2.63;;;1.35;;
33279;SDS011;20403;43.114;12.434;2023-04-30T10:07:13;3.17;;;1.30;;
33279;SDS011;20403;43.114;12.434;2023-04-30T10:12:34;2.55;;;1.00;;
33279;SDS011;20403;43.114;12.434;2023-04-30T10:15:20;6.68;;;1.63;;
33279;SDS011;20403;43.114;12.434;2023-04-30T10:18:10;4.70;;;1.60;;
33279;SDS011;20403;43.114;12.434;2023-04-30T10:20:41;5.03;;;1.38;;
33279;SDS011;20403;43.114;12.434;2023-04-30T10:23:11;4.60;;;1.30;;
33279;SDS011;20403;43.114;12.434;2023-04-30T10:25:37;2.67;;;1.00;;
33279;SDS011;20403;43.114;12.434;2023-04-30T10:28:04;2.88;;;1.35;;
33279;SDS011;20403;43.114;12.434;2023-04-30T10:30:33;3.25;;;1.20;;
33279;SDS011;20403;43.114;12.434;2023-04-30T10:33:11;3.35;;;1.33;;
33279;SDS011;20403;43.114;12.434;2023-04-30T10:35:46;3.27;;;1.40;;
33279;SDS011;20403;43.114;12.434;2023-04-30T10:38:20;3.15;;;1.70;;
33279;SDS011;20403;43.114;12.434;2023-04-30T10:40:49;5.75;;;1.38;;
33279;SDS011;20403;43.114;12.434;2023-04-30T10:43:17;4.75;;;2.30;;
33279;SDS011;20403;43.114;12.434;2023-04-30T10:48:11;7.00;;;1.40;;
33279;SDS011;20403;43.114;12.434;2023-04-30T10:50:40;5.32;;;1.40;;
33279;SDS011;20403;43.114;12.434;2023-04-30T10:53:18;2.85;;;1.15;;
33279;SDS011;20403;43.114;12.434;2023-04-30T10:55:51;3.95;;;1.40;;
33279;SDS011;20403;43.114;12.434;2023-04-30T10:58:51;4.88;;;1.60;;
33279;SDS011;20403;43.114;12.434;2023-04-30T14:12:11;2.20;;;1.30;;
33279;SDS011;20403;43.114;12.434;2023-04-30T14:14:37;2.45;;;1.40;;
33279;SDS011;20403;43.114;12.434;2023-04-30T14:17:02;2.20;;;1.02;;
33279;SDS011;20403;43.114;12.434;2023-04-30T14:19:29;2.40;;;1.23;;
33279;SDS011;20403;43.114;12.434;2023-04-30T14:21:54;6.20;;;1.35;;
33279;SDS011;20403;43.114;12.434;2023-04-30T14:24:19;5.75;;;1.35;;
33279;SDS011;20403;43.114;12.434;2023-04-30T14:26:45;2.75;;;1.08;;
33279;SDS011;20403;43.114;12.434;2023-04-30T14:29:10;1.92;;;1.20;;
33279;SDS011;20403;43.114;12.434;2023-04-30T14:31:36;3.20;;;1.40;;
33279;SDS011;20403;43.114;12.434;2023-04-30T14:34:01;6.28;;;1.40;;
33279;SDS011;20403;43.114;12.434;2023-04-30T14:36:27;4.95;;;1.85;;
33279;SDS011;20403;43.114;12.434;2023-04-30T14:38:52;2.58;;;1.35;;
33279;SDS011;20403;43.114;12.434;2023-04-30T14:41:18;4.60;;;1.58;;
33279;SDS011;20403;43.114;12.434;2023-04-30T14:43:43;6.00;;;1.52;;
33279;SDS011;20403;43.114;12.434;2023-04-30T14:46:09;3.58;;;1.60;;
33279;SDS011;20403;43.114;12.434;2023-04-30T14:48:35;3.58;;;1.67;;
33279;SDS011;20403;43.114;12.434;2023-04-30T14:51:01;4.63;;;2.35;;
33279;SDS011;20403;43.114;12.434;2023-04-30T14:53:27;4.20;;;2.10;;
33279;SDS011;20403;43.114;12.434;2023-04-30T14:55:52;3.15;;;1.80;;
33279;SDS011;20403;43.114;12.434;2023-04-30T14:58:17;8.35;;;2.40;;
33279;SDS011;20403;43.114;12.434;2023-04-30T15:00:44;9.30;;;2.33;;
33279;SDS011;20403;43.114;12.434;2023-04-30T15:03:11;8.88;;;3.38;;
33279;SDS011;20403;43.114;12.434;2023-04-30T15:05:36;5.47;;;2.10;;
33279;SDS011;20403;43.114;12.434;2023-04-30T15:08:01;8.27;;;2.45;;
33279;SDS011;20403;43.114;12.434;2023-04-30T15:10:27;8.75;;;3.00;;
33279;SDS011;20403;43.114;12.434;2023-04-30T15:12:52;3.33;;;1.90;;
33279;SDS011;20403;43.114;12.434;2023-04-30T15:15:18;4.45;;;1.60;;
33279;SDS011;20403;43.114;12.434;2023-04-30T15:17:46;4.85;;;1.80;;
33279;SDS011;20403;43.114;12.434;2023-04-30T15:20:12;3.25;;;1.80;;
33279;SDS011;20403;43.114;12.434;2023-04-30T15:22:38;5.10;;;2.53;;
33279;SDS011;20403;43.114;12.434;2023-04-30T15:25:04;5.28;;;2.38;;
33279;SDS011;20403;43.114;12.434;2023-04-30T15:27:30;5.40;;;2.10;;
33279;SDS011;20403;43.114;12.434;2023-04-30T15:29:56;9.02;;;3.20;;
33279;SDS011;20403;43.114;12.434;2023-04-30T15:32:22;11.30;;;5.03;;
33279;SDS011;20403;43.114;12.434;2023-04-30T15:34:47;8.63;;;2.65;;
33279;SDS011;20403;43.114;12.434;2023-04-30T15:37:13;5.63;;;2.83;;
33279;SDS011;20403;43.114;12.434;2023-04-30T15:39:38;7.32;;;2.50;;
33279;SDS011;20403;43.114;12.434;2023-04-30T15:42:03;4.63;;;2.00;;
33279;SDS011;20403;43.114;12.434;2023-04-30T15:44:29;4.03;;;1.95;;
33279;SDS011;20403;43.114;12.434;2023-04-30T15:46:54;5.00;;;2.08;;
33279;SDS011;20403;43.114;12.434;2023-04-30T15:49:20;4.53;;;1.80;;
33279;SDS011;20403;43.114;12.434;2023-04-30T15:51:47;4.10;;;1.30;;
33279;SDS011;20403;43.114;12.434;2023-04-30T15:54:13;4.55;;;1.90;;
33279;SDS011;20403;43.114;12.434;2023-04-30T15:56:38;4.68;;;1.77;;
33279;SDS011;20403;43.114;12.434;2023-04-30T15:59:05;5.80;;;1.70;;
33279;SDS011;20403;43.114;12.434;2023-04-30T16:01:31;8.18;;;1.95;;
33279;SDS011;20403;43.114;12.434;2023-04-30T16:03:56;6.65;;;1.98;;
33279;SDS011;20403;43.114;12.434;2023-04-30T16:06:22;4.03;;;1.60;;
33279;SDS011;20403;43.114;12.434;2023-04-30T16:08:48;7.65;;;2.20;;
33279;SDS011;20403;43.114;12.434;2023-04-30T16:11:14;3.72;;;1.67;;
33279;SDS011;20403;43.114;12.434;2023-04-30T16:13:39;3.03;;;1.40;;
33279;SDS011;20403;43.114;12.434;2023-04-30T16:16:05;6.60;;;2.25;;
33279;SDS011;20403;43.114;12.434;2023-04-30T16:18:32;3.70;;;2.08;;
33279;SDS011;20403;43.114;12.434;2023-04-30T16:20:58;7.60;;;3.60;;
33279;SDS011;20403;43.114;12.434;2023-04-30T16:23:24;7.45;;;2.83;;
33279;SDS011;20403;43.114;12.434;2023-04-30T16:25:49;5.55;;;3.25;;
33279;SDS011;20403;43.114;12.434;2023-04-30T16:28:15;5.95;;;2.50;;
33279;SDS011;20403;43.114;12.434;2023-04-30T16:30:41;6.40;;;2.30;;
33279;SDS011;20403;43.114;12.434;2023-04-30T16:33:06;9.43;;;2.65;;
33279;SDS011;20403;43.114;12.434;2023-04-30T16:35:32;4.32;;;1.80;;
33279;SDS011;20403;43.114;12.434;2023-04-30T16:37:57;4.85;;;1.52;;
33279;SDS011;20403;43.114;12.434;2023-04-30T16:40:22;3.38;;;1.52;;
33279;SDS011;20403;43.114;12.434;2023-04-30T16:42:48;4.32;;;2.65;;
33279;SDS011;20403;43.114;12.434;2023-04-30T16:45:13;19.08;;;8.63;;
33279;SDS011;20403;43.114;12.434;2023-04-30T16:47:39;21.13;;;8.50;;
33279;SDS011;20403;43.114;12.434;2023-04-30T16:50:04;6.28;;;2.60;;
33279;SDS011;20403;43.114;12.434;2023-04-30T16:52:31;7.45;;;2.13;;
33279;SDS011;20403;43.114;12.434;2023-04-30T16:54:57;8.00;;;1.90;;
33279;SDS011;20403;43.114;12.434;2023-04-30T16:57:22;15.05;;;7.80;;
33279;SDS011;20403;43.114;12.434;2023-04-30T16:59:49;9.88;;;5.25;;
33279;SDS011;20403;43.114;12.434;2023-04-30T17:02:14;16.60;;;8.30;;
33279;SDS011;20403;43.114;12.434;2023-04-30T17:04:40;11.23;;;5.82;;
33279;SDS011;20403;43.114;12.434;2023-04-30T17:07:05;11.45;;;6.68;;
33279;SDS011;20403;43.114;12.434;2023-04-30T17:09:31;6.78;;;3.25;;
33279;SDS011;20403;43.114;12.434;2023-04-30T17:11:56;9.10;;;3.40;;
33279;SDS011;20403;43.114;12.434;2023-04-30T17:14:22;18.05;;;9.45;;
33279;SDS011;20403;43.114;12.434;2023-04-30T17:16:47;9.77;;;6.57;;
33279;SDS011;20403;43.114;12.434;2023-04-30T17:19:13;9.57;;;4.18;;
33279;SDS011;20403;43.114;12.434;2023-04-30T17:21:38;11.02;;;6.85;;
33279;SDS011;20403;43.114;12.434;2023-04-30T17:24:04;10.50;;;5.20;;
33279;SDS011;20403;43.114;12.434;2023-04-30T17:26:29;5.22;;;2.30;;
33279;SDS011;20403;43.114;12.434;2023-04-30T17:28:55;4.97;;;1.98;;
33279;SDS011;20403;43.114;12.434;2023-04-30T17:31:21;5.40;;;2.00;;
33279;SDS011;20403;43.114;12.434;2023-04-30T17:33:46;6.88;;;2.17;;
33279;SDS011;20403;43.114;12.434;2023-04-30T17:36:12;6.72;;;2.05;;
33279;SDS011;20403;43.114;12.434;2023-04-30T17:38:37;4.45;;;2.10;;
33279;SDS011;20403;43.114;12.434;2023-04-30T17:41:03;5.03;;;2.20;;
33279;SDS011;20403;43.114;12.434;2023-04-30T17:43:29;6.57;;;2.58;;
33279;SDS011;20403;43.114;12.434;2023-04-30T17:45:54;5.70;;;1.83;;
33279;SDS011;20403;43.114;12.434;2023-04-30T17:48:21;2.92;;;1.30;;
33279;SDS011;20403;43.114;12.434;2023-04-30T17:50:46;8.93;;;2.08;;
33279;SDS011;20403;43.114;12.434;2023-04-30T17:53:12;5.10;;;2.03;;
33279;SDS011;20403;43.114;12.434;2023-04-30T17:55:37;5.82;;;2.00;;
33279;SDS011;20403;43.114;12.434;2023-04-30T17:58:03;3.95;;;1.90;;